Time;durP1;ratioP1;P1;durP2;ratioP2;P2;SDS_P1;SDS_P2;PMS_P1;PMS_P2;Temp;Humidity;BMP_temperature;BMP_pressure;BME280_temperature;BME280_humidity;BME280_pressure;Samples;Min_cycle;Max_cycle;Signal;HPM_P1;HPM_P2
2022/12/18 00:00:53;;;;;;;;;;;19.70;60.60;;;;;;1501857;79;732;-74
2022/12/18 00:02:56;;;;;;;;;;;19.80;60.60;;;;;;1503252;79;718;-72
2022/12/18 00:05:00;;;;;;;;;;;19.70;60.60;;;;;;1501905;79;721;-70
2022/12/18 00:07:02;;;;;;;;;;;19.70;60.60;;;;;;1501984;79;811;-73
2022/12/18 00:09:04;;;;;;;;;;;19.80;60.60;;;;;;1493409;79;1121;-71
2022/12/18 00:11:07;;;;;;;;;;;19.80;60.60;;;;;;1502050;79;1287;-71
2022/12/18 00:13:08;;;;;;;;;;;19.70;60.60;;;;;;1498909;79;709;-70
2022/12/18 00:15:10;;;;;;;;;;;19.70;60.50;;;;;;1500951;78;736;-72
2022/12/18 00:17:12;;;;;;;;;;;19.70;60.60;;;;;;1502708;79;1953;-70
2022/12/18 00:19:14;;;;;;;;;;;19.80;60.60;;;;;;1501158;78;1214;-69
2022/12/18 00:21:16;;;;;;;;;;;19.70;60.50;;;;;;1498388;79;701;-68
2022/12/18 00:23:18;;;;;;;;;;;19.70;60.60;;;;;;1502074;79;788;-69
2022/12/18 00:25:20;;;;;;;;;;;19.70;60.60;;;;;;1502418;77;1326;-69
2022/12/18 00:27:22;;;;;;;;;;;19.70;60.50;;;;;;1503885;77;708;-70
2022/12/18 00:29:23;;;;;;;;;;;19.80;60.60;;;;;;1503436;79;1191;-70
2022/12/18 00:31:26;;;;;;;;;;;19.70;60.50;;;;;;1502542;79;745;-71
2022/12/18 00:33:28;;;;;;;;;;;19.70;60.50;;;;;;1503253;79;810;-72
2022/12/18 00:35:29;;;;;;;;;;;19.80;60.60;;;;;;1503008;79;719;-70
2022/12/18 00:37:31;;;;;;;;;;;19.70;60.60;;;;;;1501514;79;1939;-71
2022/12/18 00:39:33;;;;;;;;;;;19.70;60.50;;;;;;1501401;78;1448;-72
2022/12/18 00:43:55;;;;;;;;;;;19.70;60.60;;;;;;1503036;79;1656;-70
2022/12/18 00:45:57;;;;;;;;;;;19.70;60.50;;;;;;1500739;79;772;-71
2022/12/18 00:47:58;;;;;;;;;;;19.80;60.50;;;;;;1501478;78;1178;-70
2022/12/18 00:50:00;;;;;;;;;;;19.70;60.50;;;;;;1502210;79;726;-71
2022/12/18 00:52:02;;;;;;;;;;;19.70;60.50;;;;;;1502972;79;700;-71
2022/12/18 00:54:04;;;;;;;;;;;19.70;60.50;;;;;;1506385;77;1517;-73
2022/12/18 00:56:06;;;;;;;;;;;19.70;60.50;;;;;;1502653;79;717;-71
2022/12/18 00:58:08;;;;;;;;;;;19.70;60.60;;;;;;1502969;77;1961;-70
2022/12/18 01:00:11;;;;;;;;;;;19.70;60.60;;;;;;1501214;79;722;-70
2022/12/18 01:02:13;;;;;;;;;;;19.70;60.50;;;;;;1502903;78;777;-71
2022/12/18 01:04:15;;;;;;;;;;;19.70;60.50;;;;;;1503592;79;675;-70
2022/12/18 01:06:17;;;;;;;;;;;19.70;60.50;;;;;;1502728;79;681;-72
2022/12/18 01:08:19;;;;;;;;;;;19.70;60.50;;;;;;1506879;77;1663;-71
2022/12/18 01:10:21;;;;;;;;;;;19.70;60.50;;;;;;1504004;78;826;-71
2022/12/18 01:12:23;;;;;;;;;;;19.70;60.50;;;;;;1504767;78;721;-72
2022/12/18 01:14:24;;;;;;;;;;;19.70;60.50;;;;;;1499037;79;730;-70
2022/12/18 01:16:26;;;;;;;;;;;19.70;60.50;;;;;;1500023;79;748;-71
2022/12/18 01:18:28;;;;;;;;;;;19.70;60.50;;;;;;1502722;78;1926;-72
2022/12/18 01:20:30;;;;;;;;;;;19.60;60.40;;;;;;1505858;78;708;-70
2022/12/18 01:22:35;;;;;;;;;;;19.70;60.50;;;;;;1501389;79;1723;-71
2022/12/18 01:24:37;;;;;;;;;;;19.60;60.40;;;;;;1498034;79;659;-71
2022/12/18 01:26:39;;;;;;;;;;;19.70;60.40;;;;;;1503201;79;743;-71
2022/12/18 01:28:41;;;;;;;;;;;19.60;60.40;;;;;;1503184;78;1142;-70
2022/12/18 01:30:43;;;;;;;;;;;19.70;60.40;;;;;;1502156;79;757;-70
2022/12/18 01:32:45;;;;;;;;;;;19.70;60.50;;;;;;1500256;79;732;-70
2022/12/18 01:34:46;;;;;;;;;;;19.70;60.50;;;;;;1502429;79;1314;-71
2022/12/18 01:36:48;;;;;;;;;;;19.70;60.40;;;;;;1501276;78;1927;-71
2022/12/18 01:38:50;;;;;;;;;;;19.70;60.40;;;;;;1514595;77;1172;-69
2022/12/18 01:40:54;;;;;;;;;;;19.70;60.50;;;;;;1498274;79;855;-72
2022/12/18 01:42:56;;;;;;;;;;;19.60;60.30;;;;;;1501929;79;1069;-70
2022/12/18 01:45:02;;;;;;;;;;;19.70;60.40;;;;;;1502874;79;753;-69
2022/12/18 01:47:04;;;;;;;;;;;19.70;60.50;;;;;;1498030;79;772;-70
2022/12/18 01:49:06;;;;;;;;;;;19.60;60.40;;;;;;1499618;79;1763;-72
2022/12/18 01:51:08;;;;;;;;;;;19.60;60.40;;;;;;1504808;79;729;-70
2022/12/18 01:53:11;;;;;;;;;;;19.60;60.40;;;;;;1503724;77;666;-71
2022/12/18 01:55:14;;;;;;;;;;;19.70;60.50;;;;;;1501415;78;778;-71
2022/12/18 01:57:16;;;;;;;;;;;19.70;60.40;;;;;;1502089;79;1934;-71
2022/12/18 01:59:18;;;;;;;;;;;19.60;60.30;;;;;;1501037;78;1146;-71
2022/12/18 02:01:20;;;;;;;;;;;19.70;60.40;;;;;;1502856;79;734;-70
2022/12/18 02:03:22;;;;;;;;;;;19.60;60.30;;;;;;1499347;79;1543;-70
2022/12/18 02:05:26;;;;;;;;;;;19.60;60.30;;;;;;1501331;79;647;-71
2022/12/18 02:07:32;;;;;;;;;;;19.60;60.40;;;;;;1503380;78;1908;-71
2022/12/18 02:09:39;;;;;;;;;;;19.60;60.30;;;;;;1502561;78;1131;-71
2022/12/18 02:11:51;;;;;;;;;;;19.60;60.30;;;;;;1502995;79;909;-71
2022/12/18 02:13:55;;;;;;;;;;;19.60;60.30;;;;;;1491268;79;734;-70
2022/12/18 02:16:04;;;;;;;;;;;19.70;60.40;;;;;;1502850;79;774;-70
2022/12/18 02:18:08;;;;;;;;;;;19.60;60.30;;;;;;1503782;77;1933;-70
2022/12/18 02:20:11;;;;;;;;;;;19.70;60.40;;;;;;1500688;79;1855;-70
2022/12/18 02:22:24;;;;;;;;;;;19.60;60.30;;;;;;1501315;77;769;-71
2022/12/18 02:24:27;;;;;;;;;;;19.60;60.30;;;;;;1500695;79;760;-71
2022/12/18 02:26:34;;;;;;;;;;;19.60;60.30;;;;;;1501641;79;1916;-71
2022/12/18 02:28:37;;;;;;;;;;;19.60;60.30;;;;;;1501101;79;1768;-70
2022/12/18 02:30:38;;;;;;;;;;;19.60;60.30;;;;;;1497647;79;753;-72
2022/12/18 02:32:42;;;;;;;;;;;19.60;60.30;;;;;;1499988;79;1400;-70
2022/12/18 02:34:44;;;;;;;;;;;19.60;60.30;;;;;;1504377;79;732;-70
2022/12/18 02:36:46;;;;;;;;;;;19.60;60.30;;;;;;1511431;77;787;-71
2022/12/18 02:38:47;;;;;;;;;;;19.60;60.30;;;;;;1502864;77;1952;-70
2022/12/18 02:40:49;;;;;;;;;;;19.60;60.30;;;;;;1502678;79;804;-71
2022/12/18 02:42:51;;;;;;;;;;;19.60;60.30;;;;;;1502192;79;796;-70
2022/12/18 02:44:56;;;;;;;;;;;19.60;60.30;;;;;;1501679;79;645;-71
2022/12/18 02:46:58;;;;;;;;;;;19.60;60.20;;;;;;1500335;79;747;-70
2022/12/18 02:49:19;;;;;;;;;;;19.60;60.30;;;;;;1496224;79;1088;-71
2022/12/18 02:51:23;;;;;;;;;;;19.60;60.30;;;;;;1503617;77;1174;-73
2022/12/18 02:53:26;;;;;;;;;;;19.60;60.30;;;;;;1503027;77;1034;-70
2022/12/18 02:55:30;;;;;;;;;;;19.70;60.40;;;;;;1496567;79;1197;-70
2022/12/18 02:57:36;;;;;;;;;;;19.60;60.20;;;;;;1502729;79;1935;-70
2022/12/18 02:59:40;;;;;;;;;;;19.60;60.20;;;;;;1501966;78;1641;-71
2022/12/18 03:01:56;;;;;;;;;;;19.60;60.20;;;;;;1498777;79;1796;-71
2022/12/18 03:04:11;;;;;;;;;;;19.60;60.20;;;;;;1501986;79;757;-70
2022/12/18 03:06:21;;;;;;;;;;;19.60;60.20;;;;;;1498555;79;749;-70
2022/12/18 03:08:23;;;;;;;;;;;19.70;60.30;;;;;;1499087;73;2077;-68
2022/12/18 03:10:27;;;;;;;;;;;19.70;60.30;;;;;;1568667;75;713;-71
2022/12/18 03:12:30;;;;;;;;;;;19.60;60.20;;;;;;1555546;75;698;-69
2022/12/18 03:14:32;;;;;;;;;;;19.60;60.20;;;;;;1552124;75;1558;-69
2022/12/18 03:16:34;;;;;;;;;;;19.60;60.20;;;;;;1552165;75;610;-69
2022/12/18 03:18:40;;;;;;;;;;;19.60;60.20;;;;;;1559045;75;1930;-71
2022/12/18 03:20:42;;;;;;;;;;;19.60;60.20;;;;;;1559775;75;680;-70
2022/12/18 03:22:45;;;;;;;;;;;19.50;60.20;;;;;;1563101;75;763;-71
2022/12/18 03:24:47;;;;;;;;;;;19.60;60.10;;;;;;1562678;75;600;-70
2022/12/18 03:26:50;;;;;;;;;;;19.50;60.20;;;;;;1561916;75;740;-70
2022/12/18 03:28:53;;;;;;;;;;;19.60;60.10;;;;;;1559100;75;1466;-72
2022/12/18 03:30:57;;;;;;;;;;;19.50;60.10;;;;;;1558919;75;699;-70
2022/12/18 03:33:00;;;;;;;;;;;19.60;60.10;;;;;;1565186;74;698;-69
2022/12/18 03:35:03;;;;;;;;;;;19.60;60.20;;;;;;1567345;75;1069;-69
2022/12/18 03:37:05;;;;;;;;;;;19.60;60.10;;;;;;1566415;75;749;-69
2022/12/18 03:39:07;;;;;;;;;;;19.60;60.20;;;;;;1562377;74;1934;-71
2022/12/18 03:41:27;;;;;;;;;;;19.60;60.10;;;;;;1563706;75;764;-68
2022/12/18 03:43:33;;;;;;;;;;;19.50;60.10;;;;;;1556656;75;722;-69
2022/12/18 03:45:37;;;;;;;;;;;19.50;60.10;;;;;;1557469;75;1010;-70
2022/12/18 03:47:49;;;;;;;;;;;19.50;60.20;;;;;;1554660;75;687;-70
2022/12/18 03:49:56;;;;;;;;;;;19.60;60.10;;;;;;1569985;74;1124;-69
2022/12/18 03:52:08;;;;;;;;;;;19.60;60.20;;;;;;1549705;75;1159;-68
2022/12/18 03:54:09;;;;;;;;;;;19.50;60.10;;;;;;1556263;75;588;-70
2022/12/18 03:56:11;;;;;;;;;;;19.60;60.10;;;;;;1550669;75;1438;-69
2022/12/18 03:58:13;;;;;;;;;;;19.60;60.10;;;;;;1552698;75;1920;-74
2022/12/18 04:00:16;;;;;;;;;;;19.60;60.10;;;;;;1557480;75;1136;-68
2022/12/18 04:02:18;;;;;;;;;;;19.50;60.10;;;;;;1561440;75;569;-70
2022/12/18 04:04:20;;;;;;;;;;;19.60;60.10;;;;;;1561543;75;696;-70
2022/12/18 04:06:21;;;;;;;;;;;19.60;60.20;;;;;;1569199;74;729;-70
2022/12/18 04:08:23;;;;;;;;;;;19.60;60.10;;;;;;1559472;75;1164;-69
2022/12/18 04:10:25;;;;;;;;;;;19.60;60.10;;;;;;1564080;75;1401;-74
2022/12/18 04:12:27;;;;;;;;;;;19.60;60.20;;;;;;1569240;75;782;-70
2022/12/18 04:14:29;;;;;;;;;;;19.60;60.20;;;;;;1569230;75;785;-69
2022/12/18 04:16:31;;;;;;;;;;;19.60;60.20;;;;;;1569778;74;651;-70
2022/12/18 04:18:33;;;;;;;;;;;19.50;60.20;;;;;;1570043;74;2195;-70
2022/12/18 04:20:35;;;;;;;;;;;19.60;60.10;;;;;;1560653;74;719;-70
2022/12/18 04:22:36;;;;;;;;;;;19.60;60.10;;;;;;1565775;74;713;-71
2022/12/18 04:24:38;;;;;;;;;;;19.60;60.10;;;;;;1565159;75;1504;-69
2022/12/18 04:26:40;;;;;;;;;;;19.50;60.20;;;;;;1570598;75;750;-70
2022/12/18 04:28:42;;;;;;;;;;;19.50;60.10;;;;;;1568758;74;1148;-72
2022/12/18 04:30:44;;;;;;;;;;;19.50;60.10;;;;;;1563892;75;649;-69
2022/12/18 04:32:46;;;;;;;;;;;19.60;60.20;;;;;;1568400;75;677;-70
2022/12/18 04:34:48;;;;;;;;;;;19.60;60.20;;;;;;1575315;74;682;-71
2022/12/18 04:36:50;;;;;;;;;;;19.60;60.10;;;;;;1570252;75;784;-70
2022/12/18 04:38:51;;;;;;;;;;;19.50;60.10;;;;;;1570127;74;1950;-70
2022/12/18 04:40:53;;;;;;;;;;;19.50;60.10;;;;;;1556007;75;711;-68
2022/12/18 04:42:55;;;;;;;;;;;19.60;60.10;;;;;;1568758;75;706;-69
2022/12/18 04:44:57;;;;;;;;;;;19.60;60.10;;;;;;1569472;75;682;-69
2022/12/18 04:46:59;;;;;;;;;;;19.50;60.10;;;;;;1562959;75;729;-69
2022/12/18 04:49:01;;;;;;;;;;;19.50;60.20;;;;;;1578376;73;1121;-70
2022/12/18 04:51:03;;;;;;;;;;;19.60;60.10;;;;;;1562332;75;804;-70
2022/12/18 04:53:05;;;;;;;;;;;19.60;60.20;;;;;;1570365;75;1395;-68
2022/12/18 04:55:07;;;;;;;;;;;19.60;60.10;;;;;;1570475;75;734;-69
2022/12/18 04:57:09;;;;;;;;;;;19.50;60.10;;;;;;1564660;75;706;-76
2022/12/18 04:59:11;;;;;;;;;;;20.00;60.30;;;;;;1554028;74;1953;-69
2022/12/18 05:01:13;;;;;;;;;;;19.60;60.10;;;;;;1569430;75;706;-70
2022/12/18 05:03:15;;;;;;;;;;;19.50;60.10;;;;;;1569532;74;649;-69
2022/12/18 05:05:17;;;;;;;;;;;19.60;60.10;;;;;;1568108;75;779;-70
2022/12/18 05:07:19;;;;;;;;;;;19.50;60.10;;;;;;1570020;74;1575;-70
2022/12/18 05:09:21;;;;;;;;;;;19.60;60.10;;;;;;1568905;74;1152;-69
2022/12/18 05:11:23;;;;;;;;;;;19.50;60.10;;;;;;1570078;74;859;-69
2022/12/18 05:13:25;;;;;;;;;;;19.50;60.10;;;;;;1567238;75;777;-71
2022/12/18 05:15:31;;;;;;;;;;;19.60;60.10;;;;;;1567187;75;754;-70
2022/12/18 05:17:32;;;;;;;;;;;19.50;60.10;;;;;;1572703;74;695;-70
2022/12/18 05:19:34;;;;;;;;;;;19.50;60.00;;;;;;1570368;74;1919;-70
2022/12/18 05:21:36;;;;;;;;;;;19.50;60.00;;;;;;1571435;75;1612;-70
2022/12/18 05:23:38;;;;;;;;;;;19.50;60.10;;;;;;1568462;75;793;-71
2022/12/18 05:25:40;;;;;;;;;;;19.60;60.00;;;;;;1570657;75;681;-71
2022/12/18 05:27:42;;;;;;;;;;;19.60;60.00;;;;;;1570466;74;713;-69
2022/12/18 05:29:44;;;;;;;;;;;19.60;60.00;;;;;;1562929;75;1090;-69
2022/12/18 05:31:46;;;;;;;;;;;19.60;60.00;;;;;;1564287;74;782;-70
2022/12/18 05:33:50;;;;;;;;;;;19.60;60.00;;;;;;1574657;74;1387;-69
2022/12/18 05:35:52;;;;;;;;;;;19.60;60.00;;;;;;1570304;75;721;-69
2022/12/18 05:37:54;;;;;;;;;;;19.50;60.00;;;;;;1571104;75;799;-70
2022/12/18 05:39:56;;;;;;;;;;;19.60;60.00;;;;;;1570170;74;1942;-74
2022/12/18 05:41:58;;;;;;;;;;;19.50;60.00;;;;;;1570174;75;772;-68
2022/12/18 05:44:00;;;;;;;;;;;19.50;60.00;;;;;;1568780;75;706;-69
2022/12/18 05:46:06;;;;;;;;;;;19.50;60.00;;;;;;1570800;75;677;-70
2022/12/18 05:48:08;;;;;;;;;;;19.50;60.00;;;;;;1575412;74;1689;-69
2022/12/18 05:50:10;;;;;;;;;;;19.50;60.00;;;;;;1569986;74;1083;-70
2022/12/18 05:52:12;;;;;;;;;;;19.50;60.00;;;;;;1568553;74;748;-68
2022/12/18 05:54:14;;;;;;;;;;;19.50;60.00;;;;;;1570094;75;650;-70
2022/12/18 05:56:19;;;;;;;;;;;19.50;60.00;;;;;;1568439;75;720;-69
2022/12/18 05:58:21;;;;;;;;;;;19.50;60.00;;;;;;1568609;74;1920;-69
2022/12/18 06:00:23;;;;;;;;;;;19.50;60.00;;;;;;1553198;74;662;-70
2022/12/18 06:02:25;;;;;;;;;;;19.50;60.00;;;;;;1575399;74;1466;-71
2022/12/18 06:04:28;;;;;;;;;;;19.60;60.00;;;;;;1570637;75;696;-68
2022/12/18 06:06:30;;;;;;;;;;;19.50;60.00;;;;;;1570049;74;697;-69
2022/12/18 06:08:32;;;;;;;;;;;19.50;60.00;;;;;;1570391;74;1155;-68
2022/12/18 06:10:34;;;;;;;;;;;19.50;60.00;;;;;;1571054;75;787;-71
2022/12/18 06:12:36;;;;;;;;;;;19.50;60.00;;;;;;1568777;74;702;-69
2022/12/18 06:14:37;;;;;;;;;;;19.50;59.90;;;;;;1567147;75;698;-70
2022/12/18 06:16:39;;;;;;;;;;;19.50;59.90;;;;;;1569013;74;1294;-69
2022/12/18 06:18:41;;;;;;;;;;;19.50;60.00;;;;;;1567131;74;1950;-68
2022/12/18 06:20:43;;;;;;;;;;;19.60;60.00;;;;;;1559346;74;719;-69
2022/12/18 06:22:45;;;;;;;;;;;19.50;60.00;;;;;;1565761;75;769;-69
2022/12/18 06:24:47;;;;;;;;;;;19.50;60.00;;;;;;1554994;74;801;-71
2022/12/18 06:26:49;;;;;;;;;;;19.50;60.00;;;;;;1568568;75;732;-69
2022/12/18 06:28:50;;;;;;;;;;;19.50;60.00;;;;;;1567657;74;1167;-70
2022/12/18 06:30:52;;;;;;;;;;;19.50;60.00;;;;;;1570717;74;1475;-72
2022/12/18 06:32:54;;;;;;;;;;;19.50;59.90;;;;;;1562957;75;702;-69
2022/12/18 06:34:56;;;;;;;;;;;19.50;60.00;;;;;;1569605;75;685;-76
2022/12/18 06:36:58;;;;;;;;;;;19.50;59.90;;;;;;1556371;75;972;-70
2022/12/18 06:39:00;;;;;;;;;;;19.50;59.90;;;;;;1569837;74;1942;-72
2022/12/18 06:41:03;;;;;;;;;;;19.50;59.90;;;;;;1570839;75;785;-69
2022/12/18 06:43:05;;;;;;;;;;;19.50;59.90;;;;;;1569662;75;1132;-76
2022/12/18 06:45:08;;;;;;;;;;;19.50;59.90;;;;;;1571617;74;1469;-69
2022/12/18 06:47:10;;;;;;;;;;;19.50;59.90;;;;;;1569376;74;723;-69
2022/12/18 06:49:12;;;;;;;;;;;19.50;59.90;;;;;;1561727;74;1145;-70
2022/12/18 06:51:15;;;;;;;;;;;19.50;59.90;;;;;;1567174;74;563;-70
2022/12/18 06:53:17;;;;;;;;;;;19.50;60.00;;;;;;1570089;75;700;-76
2022/12/18 06:55:19;;;;;;;;;;;19.50;59.90;;;;;;1570871;74;685;-69
2022/12/18 06:57:21;;;;;;;;;;;19.50;59.90;;;;;;1562129;75;730;-68
2022/12/18 06:59:23;;;;;;;;;;;19.50;59.90;;;;;;1571720;74;1942;-68
2022/12/18 07:01:25;;;;;;;;;;;19.40;59.70;;;;;;1574781;74;724;-68
2022/12/18 07:03:26;;;;;;;;;;;19.50;59.80;;;;;;1570258;75;723;-71
2022/12/18 07:05:28;;;;;;;;;;;19.60;59.80;;;;;;1564735;74;717;-70
2022/12/18 07:07:30;;;;;;;;;;;19.50;59.80;;;;;;1570275;75;708;-73
2022/12/18 07:09:32;;;;;;;;;;;19.50;59.80;;;;;;1570353;74;1128;-68
2022/12/18 07:11:34;;;;;;;;;;;19.50;59.80;;;;;;1568870;75;795;-69
2022/12/18 07:13:36;;;;;;;;;;;19.50;59.80;;;;;;1570226;75;1495;-68
2022/12/18 07:15:38;;;;;;;;;;;19.50;59.80;;;;;;1569732;74;695;-70
2022/12/18 07:17:40;;;;;;;;;;;19.50;59.80;;;;;;1563014;75;731;-70
2022/12/18 07:19:41;;;;;;;;;;;19.50;59.80;;;;;;1569789;74;1942;-71
2022/12/18 07:21:43;;;;;;;;;;;19.50;59.80;;;;;;1572311;75;734;-69
2022/12/18 07:23:47;;;;;;;;;;;19.40;59.70;;;;;;1568730;75;738;-69
2022/12/18 07:25:49;;;;;;;;;;;19.50;59.90;;;;;;1568047;75;1394;-69
2022/12/18 07:27:51;;;;;;;;;;;19.50;59.80;;;;;;1568562;75;1508;-71
2022/12/18 07:29:52;;;;;;;;;;;19.40;59.70;;;;;;1572149;74;1136;-73
2022/12/18 07:31:54;;;;;;;;;;;19.50;59.90;;;;;;1572120;74;785;-73
2022/12/18 07:33:56;;;;;;;;;;;19.50;59.80;;;;;;1568670;74;702;-69
2022/12/18 07:35:59;;;;;;;;;;;19.50;59.80;;;;;;1575328;74;718;-69
2022/12/18 07:38:04;;;;;;;;;;;19.50;59.80;;;;;;1571363;74;704;-71
2022/12/18 07:40:06;;;;;;;;;;;19.50;59.80;;;;;;1567651;74;1946;-69
2022/12/18 07:44:28;;;;;;;;;;;19.50;59.80;;;;;;1573692;74;941;-70
2022/12/18 07:46:30;;;;;;;;;;;19.40;59.70;;;;;;1570962;75;699;-70
2022/12/18 07:48:31;;;;;;;;;;;19.40;59.70;;;;;;1569609;74;1184;-71
2022/12/18 07:50:33;;;;;;;;;;;19.40;59.70;;;;;;1570399;75;729;-69
2022/12/18 07:52:35;;;;;;;;;;;19.50;59.80;;;;;;1554364;75;777;-74
2022/12/18 07:54:37;;;;;;;;;;;19.40;59.70;;;;;;1566716;75;1530;-69
2022/12/18 07:56:39;;;;;;;;;;;19.50;59.80;;;;;;1567886;74;793;-69
2022/12/18 07:58:41;;;;;;;;;;;19.50;59.80;;;;;;1572120;73;1147;-70
2022/12/18 08:00:43;;;;;;;;;;;19.40;59.70;;;;;;1569869;75;1906;-69
2022/12/18 08:02:45;;;;;;;;;;;19.50;59.80;;;;;;1566093;75;745;-73
2022/12/18 08:04:47;;;;;;;;;;;19.40;59.60;;;;;;1560915;74;709;-69
2022/12/18 08:06:48;;;;;;;;;;;19.50;59.80;;;;;;1565213;75;780;-69
2022/12/18 08:08:52;;;;;;;;;;;19.50;59.80;;;;;;1570667;75;1378;-70
2022/12/18 08:10:54;;;;;;;;;;;19.40;59.70;;;;;;1568429;75;1075;-69
2022/12/18 08:12:56;;;;;;;;;;;19.50;59.80;;;;;;1572030;74;790;-70
2022/12/18 08:14:58;;;;;;;;;;;19.50;59.80;;;;;;1567976;75;786;-71
2022/12/18 08:16:59;;;;;;;;;;;19.50;59.80;;;;;;1561934;75;783;-68
2022/12/18 08:19:01;;;;;;;;;;;19.40;59.70;;;;;;1569736;74;1103;-69
2022/12/18 08:21:10;;;;;;;;;;;19.50;59.70;;;;;;1566577;75;1940;-69
2022/12/18 08:23:12;;;;;;;;;;;19.40;59.60;;;;;;1561679;74;1428;-70
2022/12/18 08:25:13;;;;;;;;;;;19.50;59.80;;;;;;1562883;75;706;-69
2022/12/18 08:27:15;;;;;;;;;;;19.50;59.70;;;;;;1574509;74;638;-71
2022/12/18 08:29:17;;;;;;;;;;;19.40;59.60;;;;;;1566963;74;1146;-69
2022/12/18 08:31:19;;;;;;;;;;;19.50;59.70;;;;;;1564231;74;726;-72
2022/12/18 08:33:21;;;;;;;;;;;19.50;59.70;;;;;;1569913;74;777;-68
2022/12/18 08:35:23;;;;;;;;;;;19.40;59.60;;;;;;1566612;75;872;-69
2022/12/18 08:37:25;;;;;;;;;;;19.40;59.60;;;;;;1570964;75;1446;-70
2022/12/18 08:39:27;;;;;;;;;;;19.40;59.60;;;;;;1568636;75;1945;-69
2022/12/18 08:41:28;;;;;;;;;;;19.40;59.60;;;;;;1575797;74;736;-70
2022/12/18 08:45:50;;;;;;;;;;;19.40;59.50;;;;;;1569507;75;1663;-72
2022/12/18 08:47:52;;;;;;;;;;;19.40;59.60;;;;;;1568600;75;728;-68
2022/12/18 08:49:54;;;;;;;;;;;19.50;59.70;;;;;;1560734;74;1181;-69
2022/12/18 08:52:01;;;;;;;;;;;19.40;59.60;;;;;;1570165;75;1452;-71
2022/12/18 08:53:59;;;;;;;;;;;19.40;59.60;;;;;;1565548;75;1055;-77
2022/12/18 08:56:01;;;;;;;;;;;19.50;59.60;;;;;;1570028;74;730;-70
2022/12/18 08:58:03;;;;;;;;;;;19.40;59.50;;;;;;1577038;74;658;-69
2022/12/18 09:00:06;;;;;;;;;;;19.40;59.50;;;;;;1569369;74;1946;-70
2022/12/18 09:02:09;;;;;;;;;;;19.50;59.60;;;;;;1558603;75;699;-70
2022/12/18 09:04:10;;;;;;;;;;;19.50;59.60;;;;;;1564643;75;786;-73
2022/12/18 09:06:14;;;;;;;;;;;19.40;59.50;;;;;;1561743;75;1445;-69
2022/12/18 09:08:16;;;;;;;;;;;19.40;59.50;;;;;;1568330;74;1052;-69
2022/12/18 09:10:18;;;;;;;;;;;19.40;59.50;;;;;;1578162;72;3049;-71
2022/12/18 09:12:20;;;;;;;;;;;19.50;59.60;;;;;;1572567;74;816;-72
2022/12/18 09:14:22;;;;;;;;;;;19.50;59.60;;;;;;1571208;75;746;-69
2022/12/18 09:16:24;;;;;;;;;;;19.50;59.70;;;;;;1566262;74;725;-70
2022/12/18 09:18:26;;;;;;;;;;;19.40;59.50;;;;;;1565119;75;870;-71
2022/12/18 09:20:29;;;;;;;;;;;19.50;59.60;;;;;;1573112;74;1940;-71
2022/12/18 09:22:31;;;;;;;;;;;19.40;59.50;;;;;;1574114;74;954;-71
2022/12/18 09:24:33;;;;;;;;;;;19.40;59.50;;;;;;1573206;74;766;-73
2022/12/18 09:26:35;;;;;;;;;;;19.50;59.60;;;;;;1580333;74;717;-69
2022/12/18 09:28:37;;;;;;;;;;;19.40;59.50;;;;;;1570356;74;733;-70
2022/12/18 09:30:39;;;;;;;;;;;19.50;59.60;;;;;;1574054;75;1118;-73
2022/12/18 09:32:41;;;;;;;;;;;19.50;59.60;;;;;;1570761;74;823;-69
2022/12/18 09:34:43;;;;;;;;;;;19.50;59.60;;;;;;1573009;74;1697;-71
2022/12/18 09:36:45;;;;;;;;;;;19.50;59.60;;;;;;1575181;74;765;-71
2022/12/18 09:38:47;;;;;;;;;;;19.50;59.60;;;;;;1571681;74;1140;-72
2022/12/18 09:40:49;;;;;;;;;;;19.40;59.50;;;;;;1578232;74;1955;-72
2022/12/18 09:42:56;;;;;;;;;;;19.50;59.60;;;;;;1572558;74;748;-71
2022/12/18 09:44:58;;;;;;;;;;;19.50;59.60;;;;;;1572863;74;1038;-70
2022/12/18 09:47:10;;;;;;;;;;;19.50;59.60;;;;;;1576085;74;1495;-71
2022/12/18 09:49:14;;;;;;;;;;;19.40;59.50;;;;;;1573680;75;1157;-71
2022/12/18 09:51:16;;;;;;;;;;;19.40;59.50;;;;;;1575202;75;687;-71
2022/12/18 09:53:20;;;;;;;;;;;19.50;59.60;;;;;;1571684;74;735;-71
2022/12/18 09:55:26;;;;;;;;;;;19.40;59.50;;;;;;1581017;74;732;-72
2022/12/18 09:57:29;;;;;;;;;;;19.50;59.60;;;;;;1577247;74;653;-71
2022/12/18 09:59:32;;;;;;;;;;;19.40;59.50;;;;;;1574078;74;1158;-70
2022/12/18 10:01:34;;;;;;;;;;;19.40;59.50;;;;;;1567616;74;1924;-71
2022/12/18 10:03:36;;;;;;;;;;;19.40;59.50;;;;;;1569128;74;793;-69
2022/12/18 10:05:40;;;;;;;;;;;19.40;59.50;;;;;;1573489;74;718;-69
2022/12/18 10:07:46;;;;;;;;;;;19.50;59.60;;;;;;1573069;74;2121;-71
2022/12/18 10:09:55;;;;;;;;;;;19.40;59.40;;;;;;1574783;74;1922;-71
2022/12/18 10:12:03;;;;;;;;;;;19.50;59.50;;;;;;1528375;76;1794;-72
2022/12/18 10:14:06;;;;;;;;;;;19.40;59.40;;;;;;1510101;77;717;-69
2022/12/18 10:16:16;;;;;;;;;;;19.40;59.50;;;;;;1512134;77;1449;-70
2022/12/18 10:18:36;;;;;;;;;;;19.50;59.60;;;;;;1537987;75;722;-71
2022/12/18 10:20:42;;;;;;;;;;;19.40;59.40;;;;;;1512294;77;1941;-71
2022/12/18 10:22:46;;;;;;;;;;;19.40;59.50;;;;;;1528027;77;729;-71
2022/12/18 10:25:05;;;;;;;;;;;19.40;59.40;;;;;;1519632;77;1932;-72
2022/12/18 10:27:11;;;;;;;;;;;19.40;59.50;;;;;;1533459;75;798;-71
2022/12/18 10:29:13;;;;;;;;;;;19.40;59.50;;;;;;1542047;75;1594;-71
2022/12/18 10:31:17;;;;;;;;;;;19.40;59.50;;;;;;1545576;75;672;-72
2022/12/18 10:33:22;;;;;;;;;;;19.40;59.50;;;;;;1541006;75;900;-75
2022/12/18 10:35:25;;;;;;;;;;;19.40;59.50;;;;;;1534171;76;708;-71
2022/12/18 10:37:27;;;;;;;;;;;19.40;59.50;;;;;;1533750;76;831;-72
2022/12/18 10:39:29;;;;;;;;;;;19.40;59.50;;;;;;1538637;75;1140;-72
2022/12/18 10:41:32;;;;;;;;;;;19.40;59.50;;;;;;1531858;76;1921;-73
2022/12/18 10:43:34;;;;;;;;;;;19.40;59.50;;;;;;1545140;76;1528;-72
2022/12/18 10:45:36;;;;;;;;;;;19.40;59.50;;;;;;1546968;76;742;-71
2022/12/18 10:47:39;;;;;;;;;;;19.40;59.50;;;;;;1534050;76;777;-72
2022/12/18 10:49:43;;;;;;;;;;;19.50;59.60;;;;;;1533233;75;1165;-71
2022/12/18 10:51:45;;;;;;;;;;;19.40;59.50;;;;;;1531691;76;1609;-71
2022/12/18 10:53:48;;;;;;;;;;;19.40;59.50;;;;;;1533688;76;592;-71
2022/12/18 10:55:50;;;;;;;;;;;19.40;59.50;;;;;;1500250;78;976;-71
2022/12/18 10:57:52;;;;;;;;;;;19.40;59.50;;;;;;1546116;75;1587;-71
2022/12/18 10:59:55;;;;;;;;;;;19.40;59.50;;;;;;1545275;75;1138;-71
2022/12/18 11:01:57;;;;;;;;;;;19.40;59.50;;;;;;1515224;77;1930;-74
2022/12/18 11:04:00;;;;;;;;;;;19.40;59.50;;;;;;1512589;77;759;-71
2022/12/18 11:06:06;;;;;;;;;;;19.40;59.50;;;;;;1511419;78;742;-71
2022/12/18 11:08:09;;;;;;;;;;;19.40;59.50;;;;;;1536603;75;728;-69
2022/12/18 11:10:13;;;;;;;;;;;19.40;59.40;;;;;;1535380;75;1088;-71
2022/12/18 11:12:18;;;;;;;;;;;19.40;59.40;;;;;;1538262;75;1951;-71
2022/12/18 11:14:24;;;;;;;;;;;19.50;59.50;;;;;;1509243;77;955;-71
2022/12/18 11:16:26;;;;;;;;;;;19.40;59.40;;;;;;1544433;75;790;-72
2022/12/18 11:18:32;;;;;;;;;;;19.40;59.40;;;;;;1543201;75;720;-72
2022/12/18 11:20:36;;;;;;;;;;;19.50;59.50;;;;;;1546102;75;1929;-70
2022/12/18 11:22:38;;;;;;;;;;;19.50;59.50;;;;;;1510073;76;1144;-69
2022/12/18 11:24:40;;;;;;;;;;;19.40;59.30;;;;;;1537688;75;806;-70
2022/12/18 11:26:43;;;;;;;;;;;19.50;59.50;;;;;;1512025;77;1493;-71
2022/12/18 11:28:46;;;;;;;;;;;19.50;59.50;;;;;;1512769;77;1147;-70
2022/12/18 11:30:48;;;;;;;;;;;19.40;59.30;;;;;;1500881;77;739;-72
2022/12/18 11:33:06;;;;;;;;;;;19.50;59.50;;;;;;1505499;77;695;-70
2022/12/18 11:35:16;;;;;;;;;;;19.50;59.40;;;;;;1541231;77;742;-69
2022/12/18 11:37:22;;;;;;;;;;;19.50;59.50;;;;;;1507464;77;739;-70
2022/12/18 11:39:22;;;;;;;;;;;19.40;59.40;;;;;;1526899;76;1574;-68
2022/12/18 11:43:34;;;;;;;;;;;19.50;59.50;;;;;;1501523;77;1182;-70
2022/12/18 11:45:36;;;;;;;;;;;19.50;59.50;;;;;;1546451;75;781;-69
2022/12/18 11:47:40;;;;;;;;;;;19.50;59.50;;;;;;1546472;77;788;-69
2022/12/18 11:49:42;;;;;;;;;;;19.40;59.30;;;;;;1569463;74;1168;-69
2022/12/18 11:51:48;;;;;;;;;;;19.50;59.40;;;;;;1564565;74;735;-69
2022/12/18 11:53:51;;;;;;;;;;;19.50;59.50;;;;;;1571061;74;1567;-71
2022/12/18 11:55:55;;;;;;;;;;;19.50;59.50;;;;;;1574363;74;771;-69
2022/12/18 11:58:08;;;;;;;;;;;19.40;59.30;;;;;;1574651;74;1993;-69
2022/12/18 12:00:11;;;;;;;;;;;19.40;59.40;;;;;;1572009;74;1147;-69
2022/12/18 12:02:15;;;;;;;;;;;19.40;59.40;;;;;;1572660;75;1942;-67
2022/12/18 12:04:31;;;;;;;;;;;19.40;59.40;;;;;;1574165;74;1783;-68
2022/12/18 12:06:43;;;;;;;;;;;19.50;59.50;;;;;;1577007;74;1416;-69
2022/12/18 12:08:52;;;;;;;;;;;19.50;59.50;;;;;;1572360;74;1877;-69
2022/12/18 12:10:59;;;;;;;;;;;19.40;59.40;;;;;;1567066;74;784;-70
2022/12/18 12:13:02;;;;;;;;;;;19.40;59.40;;;;;;1574236;75;1861;-70
2022/12/18 12:15:09;;;;;;;;;;;19.40;59.40;;;;;;1575892;74;721;-70
2022/12/18 12:17:29;;;;;;;;;;;19.40;59.40;;;;;;1572484;74;1687;-71
2022/12/18 12:19:50;;;;;;;;;;;19.40;59.40;;;;;;1569383;75;1146;-70
2022/12/18 12:21:54;;;;;;;;;;;19.40;59.40;;;;;;1574930;74;1969;-72
2022/12/18 12:24:03;;;;;;;;;;;19.40;59.50;;;;;;1573284;74;1940;-71